createdAt,value
2019-05-22T00:00:45.421Z,27.45
2019-05-22T00:03:23.128Z,26.48
2019-05-22T00:05:56.645Z,28.80
2019-05-22T00:08:29.642Z,26.37
2019-05-22T00:11:04.353Z,24.30
2019-05-22T00:13:40.209Z,26.15
2019-05-22T00:16:14.870Z,26.25
2019-05-22T00:18:50.146Z,25.72
2019-05-22T00:21:25.854Z,25.10
2019-05-22T00:23:59.808Z,28.23
2019-05-22T00:26:34.026Z,26.55
2019-05-22T00:29:07.657Z,27.50
2019-05-22T00:31:41.255Z,26.95
2019-05-22T00:34:15.129Z,27.27
2019-05-22T00:36:49.665Z,29.95
2019-05-22T00:39:25.896Z,27.00
2019-05-22T00:42:00.717Z,28.17
2019-05-22T00:44:34.447Z,27.22
2019-05-22T00:47:13.186Z,30.60
2019-05-22T00:49:48.671Z,26.70
2019-05-22T00:52:42.562Z,28.38
2019-05-22T00:55:42.773Z,29.35
2019-05-22T00:58:34.307Z,27.45
2019-05-22T01:01:30.239Z,26.73
2019-05-22T01:04:05.043Z,24.60
2019-05-22T01:06:38.766Z,23.20
2019-05-22T01:09:20.054Z,25.60
2019-05-22T01:11:55.074Z,24.50
2019-05-22T01:14:42.005Z,25.77
2019-05-22T01:17:07.334Z,26.73
2019-05-22T01:19:42.691Z,27.25
2019-05-22T01:22:17.648Z,27.73
2019-05-22T01:24:53.917Z,27.70
2019-05-22T01:27:29.751Z,26.65
2019-05-22T01:30:06.623Z,26.50
2019-05-22T01:32:48.717Z,27.10
2019-05-22T01:35:28.805Z,26.90
2019-05-22T01:38:01.708Z,25.23
2019-05-22T01:40:42.042Z,27.05
2019-05-22T01:43:17.231Z,24.65
2019-05-22T01:45:53.381Z,25.37
2019-05-22T01:48:33.022Z,23.55
2019-05-22T01:51:06.369Z,25.35
2019-05-22T01:53:40.634Z,23.38
2019-05-22T01:56:16.330Z,26.00
2019-05-22T01:58:51.644Z,23.05
2019-05-22T02:01:26.405Z,22.45
2019-05-22T02:03:59.960Z,23.27
2019-05-22T02:06:34.874Z,22.90
2019-05-22T02:09:30.509Z,23.42
2019-05-22T02:12:15.499Z,24.92
2019-05-22T02:14:50.507Z,24.02
2019-05-22T02:17:31.410Z,24.75
2019-05-22T02:20:08.176Z,23.77
2019-05-22T02:22:42.386Z,23.67
2019-05-22T02:25:15.272Z,24.37
2019-05-22T02:27:50.412Z,23.65
2019-05-22T02:30:26.276Z,26.70
2019-05-22T02:33:00.694Z,25.32
2019-05-22T02:35:36.194Z,24.35
2019-05-22T02:38:09.923Z,24.05
2019-05-22T02:40:45.579Z,23.07
2019-05-22T02:43:19.201Z,24.00
2019-05-22T02:45:52.572Z,23.60
2019-05-22T02:48:27.655Z,24.60
2019-05-22T02:51:02.569Z,23.73
2019-05-22T02:53:35.566Z,24.00
2019-05-22T02:56:08.633Z,24.45
2019-05-22T02:58:41.981Z,23.87
2019-05-22T03:01:15.936Z,22.02
2019-05-22T03:03:49.652Z,23.90
2019-05-22T03:06:23.543Z,21.75
2019-05-22T03:09:26.389Z,23.45
2019-05-22T03:12:08.041Z,22.52
2019-05-22T03:14:41.025Z,23.65
2019-05-22T03:17:27.626Z,22.98
2019-05-22T03:20:05.751Z,20.72
2019-05-22T03:22:47.153Z,21.05
2019-05-22T03:25:21.939Z,21.30
2019-05-22T03:27:56.228Z,21.15
2019-05-22T03:30:34.130Z,23.35
2019-05-22T03:33:09.838Z,20.52
2019-05-22T03:35:46.911Z,21.05
2019-05-22T03:38:20.939Z,21.12
2019-05-22T03:40:54.901Z,20.85
2019-05-22T03:43:31.599Z,21.35
2019-05-22T03:46:30.872Z,19.75
2019-05-22T03:49:05.120Z,21.15
2019-05-22T03:51:40.212Z,21.75
2019-05-22T03:54:13.724Z,20.50
2019-05-22T03:56:47.104Z,20.90
2019-05-22T03:59:21.347Z,19.50
2019-05-22T04:01:55.167Z,21.10
2019-05-22T04:04:40.737Z,18.37
2019-05-22T04:07:16.696Z,18.57
2019-05-22T04:09:52.363Z,18.23
2019-05-22T04:12:26.574Z,19.60
2019-05-22T04:15:00.966Z,18.20
2019-05-22T04:17:36.015Z,17.95
2019-05-22T04:20:13.427Z,18.70
2019-05-22T04:22:48.512Z,18.12
2019-05-22T04:25:23.676Z,16.40
2019-05-22T04:27:57.324Z,17.67
2019-05-22T04:30:31.635Z,17.07
2019-05-22T04:33:04.371Z,16.95
2019-05-22T04:35:37.797Z,17.52
2019-05-22T04:38:10.488Z,15.75
2019-05-22T04:40:54.019Z,15.20
2019-05-22T04:43:32.225Z,14.03
2019-05-22T04:46:07.659Z,14.30
2019-05-22T04:48:46.090Z,12.95
2019-05-22T04:51:30.655Z,13.30
2019-05-22T04:54:04.188Z,12.88
2019-05-22T04:56:39.147Z,11.35
2019-05-22T04:59:12.896Z,12.70
2019-05-22T05:01:46.988Z,12.50
2019-05-22T05:04:20.667Z,12.78
2019-05-22T05:06:53.771Z,12.78
2019-05-22T05:09:27.431Z,12.58
2019-05-22T05:11:59.796Z,12.30
2019-05-22T05:14:33.382Z,12.60
2019-05-22T05:17:07.833Z,12.30
2019-05-22T05:19:40.995Z,12.55
2019-05-22T05:22:20.106Z,12.15
2019-05-22T05:24:55.873Z,13.32
2019-05-22T05:27:31.465Z,13.85
2019-05-22T05:30:04.279Z,13.13
2019-05-22T05:32:38.139Z,12.65
2019-05-22T05:35:13.156Z,15.58
2019-05-22T05:37:46.709Z,13.98
2019-05-22T05:40:34.058Z,13.20
2019-05-22T05:43:09.150Z,14.63
2019-05-22T05:45:44.482Z,12.25
2019-05-22T05:48:20.648Z,11.53
2019-05-22T05:51:39.938Z,13.80
2019-05-22T05:54:14.566Z,12.93
2019-05-22T05:56:49.859Z,12.43
2019-05-22T05:59:26.158Z,12.80
2019-05-22T06:02:00.024Z,12.55
2019-05-22T06:04:35.860Z,12.28
2019-05-22T06:07:35.039Z,13.13
2019-05-22T06:10:44.487Z,11.83
2019-05-22T06:13:17.720Z,12.20
2019-05-22T06:16:46.931Z,11.65
2019-05-22T06:19:20.333Z,11.48
2019-05-22T06:21:54.296Z,12.45
2019-05-22T06:24:57.868Z,11.83
2019-05-22T06:27:44.168Z,10.15
2019-05-22T06:30:31.944Z,10.85
2019-05-22T06:33:34.461Z,9.50
2019-05-22T06:36:12.477Z,9.68
2019-05-22T06:39:16.854Z,10.10
2019-05-22T06:41:51.528Z,10.50
2019-05-22T06:44:32.095Z,10.98
2019-05-22T06:47:08.872Z,10.85
2019-05-22T06:49:46.343Z,10.60
2019-05-22T06:52:19.215Z,10.48
2019-05-22T06:54:53.538Z,9.60
2019-05-22T06:57:34.143Z,9.88
2019-05-22T07:00:19.764Z,9.95
2019-05-22T07:02:53.494Z,10.08
2019-05-22T07:05:27.454Z,10.28
2019-05-22T07:08:00.543Z,11.50
2019-05-22T07:10:35.932Z,12.82
2019-05-22T07:13:10.660Z,11.57
2019-05-22T07:15:53.545Z,10.70
2019-05-22T07:18:31.582Z,11.48
2019-05-22T07:21:06.441Z,10.85
2019-05-22T07:23:39.590Z,11.25
2019-05-22T07:26:13.503Z,10.85
2019-05-22T07:28:47.111Z,11.35
2019-05-22T07:31:20.824Z,11.90
2019-05-22T07:33:53.939Z,12.43
2019-05-22T07:36:30.269Z,12.95
2019-05-22T07:39:05.133Z,12.80
2019-05-22T07:41:39.474Z,12.10
2019-05-22T07:44:13.091Z,12.20
2019-05-22T07:46:48.548Z,11.15
2019-05-22T07:49:22.209Z,14.13
2019-05-22T07:52:00.860Z,12.88
2019-05-22T07:54:32.530Z,13.30
2019-05-22T07:57:06.944Z,13.32
2019-05-22T07:59:40.094Z,14.43
2019-05-22T08:02:16.071Z,14.00
2019-05-22T08:04:49.775Z,12.60
2019-05-22T08:07:26.271Z,13.40
2019-05-22T08:09:59.930Z,13.00
2019-05-22T08:12:33.648Z,13.20
2019-05-22T08:15:08.646Z,11.95
2019-05-22T08:17:42.922Z,12.88
2019-05-22T08:20:16.463Z,12.30
2019-05-22T08:22:50.991Z,11.43
2019-05-22T08:25:25.611Z,11.08
2019-05-22T08:27:59.243Z,9.73
2019-05-22T08:30:32.882Z,9.58
2019-05-22T08:33:10.877Z,10.55
2019-05-22T08:35:44.295Z,10.23
2019-05-22T08:38:20.680Z,10.45
2019-05-22T08:40:54.490Z,9.10
2019-05-22T08:43:29.276Z,11.00
2019-05-22T08:46:05.631Z,11.22
2019-05-22T08:48:46.937Z,11.57
2019-05-22T08:51:15.664Z,11.10
2019-05-22T08:53:50.789Z,12.88
2019-05-22T08:56:24.045Z,12.43
2019-05-22T08:58:57.739Z,12.98
2019-05-22T09:01:31.896Z,13.40
2019-05-22T09:04:05.506Z,11.65
2019-05-22T09:06:38.023Z,11.15
2019-05-22T09:09:11.832Z,10.20
2019-05-22T09:11:45.469Z,9.63
2019-05-22T09:14:18.541Z,10.05
2019-05-22T09:16:52.505Z,8.47
2019-05-22T09:19:27.046Z,7.40
2019-05-22T09:22:00.624Z,6.55
2019-05-22T09:24:36.029Z,7.47
2019-05-22T09:27:11.049Z,7.97
2019-05-22T09:29:43.928Z,6.80
2019-05-22T09:32:18.320Z,7.67
2019-05-22T09:34:51.513Z,7.03
2019-05-22T09:37:25.354Z,8.53
2019-05-22T09:39:59.098Z,7.62
2019-05-22T09:42:34.098Z,8.30
2019-05-22T09:45:08.578Z,6.70
2019-05-22T09:47:42.163Z,8.18
2019-05-22T09:50:16.483Z,7.50
2019-05-22T09:52:57.799Z,7.83
2019-05-22T09:55:24.918Z,8.00
2019-05-22T09:57:57.892Z,7.50
2019-05-22T10:00:31.486Z,7.33
2019-05-22T10:03:05.306Z,7.93
2019-05-22T10:05:38.763Z,6.60
2019-05-22T10:08:12.337Z,7.50
2019-05-22T10:10:44.654Z,7.60
2019-05-22T10:13:18.183Z,7.40
2019-05-22T10:15:52.373Z,7.20
2019-05-22T10:18:25.874Z,7.60
2019-05-22T10:20:59.218Z,8.10
2019-05-22T10:23:34.956Z,8.23
2019-05-22T10:26:08.808Z,7.63
2019-05-22T10:28:43.584Z,7.87
2019-05-22T10:31:17.983Z,8.60
2019-05-22T10:33:52.117Z,9.43
2019-05-22T10:36:26.399Z,7.70
2019-05-22T10:38:59.455Z,9.03
2019-05-22T10:41:33.338Z,8.60
2019-05-22T10:44:07.167Z,10.10
2019-05-22T10:46:41.557Z,8.00
2019-05-22T10:49:14.363Z,8.23
2019-05-22T10:51:47.930Z,7.90
2019-05-22T10:54:21.359Z,8.13
2019-05-22T10:56:54.219Z,7.60
2019-05-22T10:59:27.675Z,7.47
2019-05-22T11:02:00.806Z,7.00
2019-05-22T11:04:35.604Z,7.70
2019-05-22T11:07:09.462Z,7.47
2019-05-22T11:09:43.325Z,6.73
2019-05-22T11:12:16.885Z,7.17
2019-05-22T11:14:50.552Z,5.90
2019-05-22T11:17:23.858Z,6.60
2019-05-22T11:19:57.864Z,5.50
2019-05-22T11:22:34.880Z,6.87
2019-05-22T11:25:10.836Z,6.67
2019-05-22T11:27:45.051Z,6.87
2019-05-22T11:30:19.545Z,8.10
2019-05-22T11:32:53.513Z,6.63
2019-05-22T11:35:28.406Z,5.57
2019-05-22T11:38:01.929Z,5.90
2019-05-22T11:40:36.077Z,6.43
2019-05-22T11:43:10.651Z,5.83
2019-05-22T11:45:45.348Z,5.90
2019-05-22T11:48:19.277Z,5.80
2019-05-22T11:50:54.011Z,6.30
2019-05-22T11:53:27.617Z,5.70
2019-05-22T11:56:00.817Z,5.90
2019-05-22T11:58:33.769Z,5.60
2019-05-22T12:01:07.478Z,5.97
2019-05-22T12:03:43.447Z,6.17
2019-05-22T12:06:17.754Z,6.00
2019-05-22T12:08:50.747Z,7.13
2019-05-22T12:11:23.825Z,5.93
2019-05-22T12:13:57.832Z,5.77
2019-05-22T12:16:30.954Z,4.80
2019-05-22T12:19:04.632Z,4.87
2019-05-22T12:21:38.667Z,5.40
2019-05-22T12:24:26.131Z,5.13
2019-05-22T12:26:48.956Z,5.50
2019-05-22T12:29:23.577Z,5.97
2019-05-22T12:31:57.184Z,5.20
2019-05-22T12:34:31.548Z,6.63
2019-05-22T12:37:05.020Z,5.30
2019-05-22T12:39:39.650Z,5.17
2019-05-22T12:42:13.733Z,6.20
2019-05-22T12:44:47.424Z,6.07
2019-05-22T12:47:20.924Z,6.20
2019-05-22T12:49:54.863Z,5.90
2019-05-22T12:52:28.503Z,6.43
2019-05-22T12:55:01.718Z,6.20
2019-05-22T12:57:35.003Z,5.90
2019-05-22T13:00:09.051Z,6.20
2019-05-22T13:02:43.745Z,6.93
2019-05-22T13:05:17.757Z,6.80
2019-05-22T13:07:51.895Z,6.67
2019-05-22T13:10:26.562Z,6.70
2019-05-22T13:13:00.889Z,6.03
2019-05-22T13:15:37.261Z,6.10
2019-05-22T13:18:13.865Z,6.10
2019-05-22T13:20:50.682Z,6.23
2019-05-22T13:23:28.047Z,6.80
2019-05-22T13:26:02.462Z,7.40
2019-05-22T13:28:38.608Z,9.80
2019-05-22T13:31:13.246Z,6.40
2019-05-22T13:33:47.503Z,6.93
2019-05-22T13:36:21.833Z,6.97
2019-05-22T13:38:55.075Z,5.97
2019-05-22T13:41:28.411Z,6.60
2019-05-22T13:44:04.173Z,7.50
2019-05-22T13:46:37.717Z,5.43
2019-05-22T13:49:11.514Z,6.20
2019-05-22T13:51:44.495Z,7.17
2019-05-22T13:54:18.935Z,7.37
2019-05-22T13:56:52.039Z,7.43
2019-05-22T13:59:26.477Z,6.83
2019-05-22T14:02:00.384Z,6.40
2019-05-22T14:04:35.528Z,7.60
2019-05-22T14:07:09.869Z,6.70
2019-05-22T14:09:43.877Z,6.73
2019-05-22T14:12:17.544Z,6.67
2019-05-22T14:14:51.233Z,6.30
2019-05-22T14:17:24.436Z,5.90
2019-05-22T14:19:58.059Z,6.00
2019-05-22T14:22:31.596Z,6.57
2019-05-22T14:25:05.628Z,6.20
2019-05-22T14:27:41.827Z,5.37
2019-05-22T14:30:16.017Z,5.70
2019-05-22T14:32:49.606Z,5.60
2019-05-22T14:35:25.264Z,5.10
2019-05-22T14:37:58.940Z,5.37
2019-05-22T14:40:33.288Z,4.93
2019-05-22T14:43:06.910Z,5.23
2019-05-22T14:45:40.724Z,4.83
2019-05-22T14:48:13.731Z,4.70
2019-05-22T14:50:48.224Z,4.50
2019-05-22T14:53:22.374Z,3.70
2019-05-22T14:55:57.325Z,3.43
2019-05-22T14:58:30.551Z,3.93
2019-05-22T15:01:05.209Z,3.00
2019-05-22T15:03:39.276Z,3.30
2019-05-22T15:06:13.857Z,4.83
2019-05-22T15:08:47.025Z,3.67
2019-05-22T15:11:21.988Z,3.87
2019-05-22T15:13:56.075Z,3.67
2019-05-22T15:16:29.662Z,3.57
2019-05-22T15:19:03.805Z,3.63
2019-05-22T15:21:37.125Z,3.70
2019-05-22T15:24:11.243Z,3.57
2019-05-22T15:26:44.997Z,3.63
2019-05-22T15:29:18.533Z,3.80
2019-05-22T15:31:53.614Z,3.67
2019-05-22T15:34:28.804Z,4.60
2019-05-22T15:37:02.455Z,3.73
2019-05-22T15:39:37.139Z,3.73
2019-05-22T15:42:14.251Z,3.97
2019-05-22T15:44:48.759Z,4.03
2019-05-22T15:47:23.054Z,3.20
2019-05-22T15:49:57.125Z,3.30
2019-05-22T15:52:31.002Z,3.13
2019-05-22T15:55:05.281Z,3.43
2019-05-22T15:57:41.416Z,3.67
2019-05-22T16:00:18.787Z,3.57
2019-05-22T16:02:54.166Z,3.50
2019-05-22T16:05:29.047Z,3.73
2019-05-22T16:08:02.675Z,3.50
2019-05-22T16:10:38.754Z,3.70
2019-05-22T16:13:14.520Z,4.10
2019-05-22T16:15:51.710Z,3.57
2019-05-22T16:18:28.063Z,4.17
2019-05-22T16:21:03.378Z,3.30
2019-05-22T16:23:37.972Z,3.60
2019-05-22T16:26:12.416Z,3.60
2019-05-22T16:28:47.622Z,3.40
2019-05-22T16:31:22.207Z,4.00
2019-05-22T16:33:55.794Z,3.77
2019-05-22T16:36:30.413Z,3.90
2019-05-22T16:39:05.812Z,3.87
2019-05-22T16:41:41.572Z,3.30
2019-05-22T16:44:16.139Z,3.60
2019-05-22T16:46:50.211Z,3.30
2019-05-22T16:49:23.802Z,3.53
2019-05-22T16:52:00.572Z,3.43
2019-05-22T16:54:34.738Z,3.70
2019-05-22T16:57:09.309Z,3.80
2019-05-22T16:59:42.125Z,3.83
2019-05-22T17:02:17.562Z,3.70
2019-05-22T17:04:51.509Z,3.30
2019-05-22T17:07:28.129Z,3.83
2019-05-22T17:10:04.591Z,3.90
2019-05-22T17:12:39.300Z,4.97
2019-05-22T17:15:17.892Z,3.63
2019-05-22T17:17:52.362Z,3.53
2019-05-22T17:20:27.308Z,3.40
2019-05-22T17:23:01.386Z,3.93
2019-05-22T17:25:35.253Z,6.03
2019-05-22T17:28:09.495Z,3.50
2019-05-22T17:30:43.192Z,4.50
2019-05-22T17:33:17.146Z,2.93
2019-05-22T17:35:52.411Z,3.60
2019-05-22T17:38:26.751Z,3.60
2019-05-22T17:41:01.594Z,4.03
2019-05-22T17:43:35.607Z,3.00
2019-05-22T17:46:08.733Z,3.47
2019-05-22T17:48:42.979Z,3.63
2019-05-22T17:51:15.811Z,3.73
2019-05-22T17:53:49.926Z,3.57
2019-05-22T17:56:23.034Z,3.67
2019-05-22T17:58:55.789Z,3.90
2019-05-22T18:01:30.426Z,3.27
2019-05-22T18:04:04.233Z,3.63
2019-05-22T18:06:37.164Z,3.97
2019-05-22T18:09:11.570Z,4.50
2019-05-22T18:11:44.717Z,3.53
2019-05-22T18:14:18.787Z,3.93
2019-05-22T18:16:51.136Z,4.70
2019-05-22T18:19:25.344Z,3.43
2019-05-22T18:21:58.901Z,4.13
2019-05-22T18:24:32.493Z,4.17
2019-05-22T18:27:05.500Z,3.63
2019-05-22T18:29:39.107Z,4.37
2019-05-22T18:32:13.310Z,3.53
2019-05-22T18:34:46.879Z,4.20
2019-05-22T18:37:21.038Z,5.33
2019-05-22T18:39:53.987Z,3.73
2019-05-22T18:42:27.878Z,4.00
2019-05-22T18:45:01.320Z,4.33
2019-05-22T18:47:35.750Z,4.30
2019-05-22T18:50:09.776Z,4.30
2019-05-22T18:52:47.178Z,3.15
2019-05-22T18:55:20.835Z,4.33
2019-05-22T18:57:54.578Z,4.10
2019-05-22T19:00:28.788Z,3.72
2019-05-22T19:03:01.733Z,3.45
2019-05-22T19:05:36.500Z,4.42
2019-05-22T19:14:16.942Z,4.08
2019-05-22T19:16:50.931Z,3.67
2019-05-22T19:19:28.791Z,3.55
2019-05-22T19:22:01.857Z,3.80
2019-05-22T19:24:34.625Z,4.72
2019-05-22T19:27:07.760Z,4.65
2019-05-22T19:29:46.689Z,5.53
2019-05-22T19:32:19.608Z,4.10
2019-05-22T19:34:57.819Z,4.75
2019-05-22T19:37:31.322Z,4.30
2019-05-22T19:40:10.672Z,4.87
2019-05-22T19:42:47.612Z,4.45
2019-05-22T19:45:21.811Z,4.53
2019-05-22T19:47:58.311Z,4.85
2019-05-22T19:50:32.326Z,6.65
2019-05-22T19:53:58.439Z,4.90
2019-05-22T19:55:50.772Z,4.83
2019-05-22T19:58:28.173Z,4.62
2019-05-22T20:01:10.604Z,4.05
2019-05-22T20:03:49.879Z,5.08
2019-05-22T20:06:27.709Z,4.87
2019-05-22T20:09:07.390Z,6.00
2019-05-22T20:11:41.487Z,5.58
2019-05-22T20:14:23.743Z,6.30
2019-05-22T20:17:09.577Z,9.48
2019-05-22T20:19:48.196Z,8.28
2019-05-22T20:22:28.989Z,5.80
2019-05-22T20:25:08.510Z,6.75
2019-05-22T20:27:49.656Z,6.10
2019-05-22T20:30:30.863Z,6.45
2019-05-22T20:33:09.235Z,10.65
2019-05-22T20:35:47.261Z,8.68
2019-05-22T20:38:20.733Z,7.15
2019-05-22T20:41:11.038Z,7.92
2019-05-22T20:44:10.868Z,6.83
2019-05-22T20:46:59.714Z,6.03
2019-05-22T20:49:41.608Z,6.00
2019-05-22T20:52:31.258Z,8.58
2019-05-22T20:55:18.179Z,7.12
2019-05-22T21:00:40.258Z,7.22
2019-05-22T21:03:21.239Z,9.40
2019-05-22T21:05:56.642Z,7.72
2019-05-22T21:08:31.556Z,7.62
2019-05-22T21:11:07.022Z,9.33
2019-05-22T21:13:40.547Z,7.83
2019-05-22T21:16:18.148Z,8.15
2019-05-22T21:18:59.244Z,7.40
2019-05-22T21:21:29.798Z,8.30
2019-05-22T21:24:11.200Z,8.25
2019-05-22T21:26:44.212Z,8.40
2019-05-22T21:29:18.627Z,7.53
2019-05-22T21:31:59.246Z,7.35
2019-05-22T21:34:30.656Z,7.50
2019-05-22T21:37:05.962Z,7.80
